createdAt,value
2023-08-14T00:00:43.866Z,13.05
2023-08-14T00:05:45.421Z,14.80
2023-08-14T00:10:46.917Z,18.13
2023-08-14T00:15:49.802Z,21.92
2023-08-14T00:20:51.365Z,22.77
2023-08-14T00:25:52.806Z,28.30
2023-08-14T00:30:55.618Z,26.23
2023-08-14T00:35:57.071Z,27.02
2023-08-14T00:40:58.458Z,28.77
2023-08-14T00:46:01.467Z,26.85
2023-08-14T00:51:03.019Z,29.83
2023-08-14T00:56:05.817Z,30.58
2023-08-14T01:01:08.588Z,28.67
2023-08-14T01:06:10.001Z,20.92
2023-08-14T01:11:15.879Z,20.38
2023-08-14T01:16:20.726Z,20.95
2023-08-14T01:21:30.683Z,20.17
2023-08-14T01:26:34.211Z,16.52
2023-08-14T01:31:35.576Z,16.70
2023-08-14T01:36:39.507Z,16.02
2023-08-14T01:41:45.626Z,16.98
2023-08-14T01:46:47.247Z,18.98
2023-08-14T01:51:50.273Z,23.20
2023-08-14T01:56:53.043Z,33.33
2023-08-14T02:01:54.534Z,14.15
2023-08-14T02:06:55.970Z,17.02
2023-08-14T02:11:58.929Z,13.80
2023-08-14T02:17:00.363Z,13.73
2023-08-14T02:22:01.719Z,10.18
2023-08-14T02:27:04.396Z,11.75
2023-08-14T02:32:05.771Z,6.55
2023-08-14T02:37:07.095Z,5.05
2023-08-14T02:42:10.116Z,4.55
2023-08-14T02:47:11.971Z,4.20
2023-08-14T02:52:13.430Z,2.80
2023-08-14T02:57:16.240Z,3.40
2023-08-14T03:02:17.806Z,2.65
2023-08-14T03:07:19.402Z,3.08
2023-08-14T03:12:22.144Z,3.03
2023-08-14T03:17:23.638Z,2.90
2023-08-14T03:22:25.087Z,2.47
2023-08-14T03:27:27.744Z,3.10
2023-08-14T03:32:29.219Z,3.10
2023-08-14T03:37:30.610Z,2.95
2023-08-14T03:42:33.324Z,2.92
2023-08-14T03:47:34.798Z,2.90
2023-08-14T03:52:36.462Z,3.10
2023-08-14T03:57:39.146Z,3.45
2023-08-14T04:02:40.710Z,2.70
2023-08-14T04:07:42.127Z,2.90
2023-08-14T04:12:44.809Z,2.90
2023-08-14T04:17:46.278Z,3.40
2023-08-14T04:22:47.653Z,3.17
2023-08-14T04:27:50.451Z,3.13
2023-08-14T04:32:51.914Z,3.58
2023-08-14T04:37:53.376Z,4.07
2023-08-14T04:42:56.193Z,4.68
2023-08-14T04:47:57.889Z,4.00
2023-08-14T04:52:59.268Z,3.70
2023-08-14T04:58:02.233Z,3.53
2023-08-14T05:03:03.859Z,3.85
2023-08-14T05:08:05.484Z,3.42
2023-08-14T05:13:08.282Z,3.22
2023-08-14T05:18:09.747Z,3.60
2023-08-14T05:23:11.204Z,3.33
2023-08-14T05:28:14.012Z,3.60
2023-08-14T05:33:16.115Z,6.15
2023-08-14T05:38:17.524Z,6.32
2023-08-14T05:43:20.271Z,6.30
2023-08-14T05:48:21.732Z,7.10
2023-08-14T05:53:23.083Z,6.45
2023-08-14T05:58:25.799Z,5.82
2023-08-14T06:03:41.943Z,6.07
2023-08-14T06:08:45.413Z,8.00
2023-08-14T06:13:48.214Z,8.27
2023-08-14T06:18:49.649Z,8.57
2023-08-14T06:28:55.737Z,10.98
2023-08-14T06:33:57.148Z,10.20
2023-08-14T06:38:59.107Z,8.73
2023-08-14T06:44:01.837Z,7.32
2023-08-14T06:49:03.335Z,6.60
2023-08-14T06:54:04.985Z,5.47
2023-08-14T06:59:07.793Z,5.75
2023-08-14T07:04:09.265Z,5.43
2023-08-14T07:09:10.910Z,5.28
2023-08-14T07:14:14.450Z,5.03
2023-08-14T07:19:16.091Z,4.22
2023-08-14T07:24:17.479Z,5.03
2023-08-14T07:29:20.175Z,4.40
2023-08-14T07:34:21.522Z,4.47
2023-08-14T07:39:22.947Z,4.43
2023-08-14T07:44:25.686Z,4.45
2023-08-14T07:49:27.095Z,3.85
2023-08-14T07:54:28.536Z,3.90
2023-08-14T07:59:31.247Z,3.38
2023-08-14T08:04:39.562Z,4.03
2023-08-14T08:09:41.441Z,3.95
2023-08-14T08:14:44.143Z,3.78
2023-08-14T08:19:45.551Z,4.10
2023-08-14T08:24:46.959Z,4.50
2023-08-14T08:29:49.681Z,4.43
2023-08-14T08:34:51.148Z,4.63
2023-08-14T08:39:53.962Z,4.03
2023-08-14T08:44:59.657Z,4.05
2023-08-14T08:50:02.254Z,3.88
2023-08-14T08:55:04.321Z,4.10
2023-08-14T09:00:08.444Z,3.42
2023-08-14T09:05:09.870Z,3.75
2023-08-14T09:10:11.433Z,3.50
2023-08-14T09:15:14.148Z,3.50
2023-08-14T09:20:19.706Z,3.40
2023-08-14T09:25:25.949Z,3.30
2023-08-14T09:30:28.974Z,3.70
2023-08-14T09:35:30.352Z,3.42
2023-08-14T09:40:32.207Z,3.38
2023-08-14T09:45:35.005Z,3.22
2023-08-14T09:50:36.436Z,3.78
2023-08-14T09:55:38.252Z,3.67
2023-08-14T10:00:41.243Z,3.50
2023-08-14T10:05:42.793Z,2.97
2023-08-14T10:10:47.806Z,3.20
2023-08-14T10:15:56.391Z,3.50
2023-08-14T10:20:58.311Z,3.30
2023-08-14T10:26:00.004Z,3.40
2023-08-14T10:31:03.067Z,3.25
2023-08-14T10:36:04.645Z,3.75
2023-08-14T10:41:06.391Z,3.20
2023-08-14T10:46:10.095Z,3.05
2023-08-14T10:51:11.996Z,3.05
2023-08-14T10:56:13.341Z,3.00
2023-08-14T11:01:17.741Z,2.90
2023-08-14T11:06:22.210Z,2.90
2023-08-14T11:11:23.710Z,2.78
2023-08-14T11:16:27.021Z,2.97
2023-08-14T11:21:32.380Z,2.88
2023-08-14T11:26:34.163Z,2.83
2023-08-14T11:31:44.669Z,2.60
2023-08-14T11:37:06.618Z,2.60
2023-08-14T11:42:09.539Z,2.58
2023-08-14T11:47:12.402Z,2.60
2023-08-14T11:52:13.874Z,3.20
2023-08-14T11:57:15.283Z,2.65
2023-08-14T12:02:18.461Z,2.97
2023-08-14T12:07:20.441Z,3.10
2023-08-14T12:12:22.415Z,2.60
2023-08-14T12:17:25.890Z,2.70
2023-08-14T12:22:28.211Z,2.60
2023-08-14T12:27:29.792Z,2.47
2023-08-14T12:32:32.641Z,2.72
2023-08-14T12:37:34.030Z,2.92
2023-08-14T12:42:35.551Z,2.47
2023-08-14T12:47:38.446Z,2.60
2023-08-14T12:52:39.815Z,2.80
2023-08-14T12:57:41.233Z,2.30
2023-08-14T13:02:43.945Z,2.78
2023-08-14T13:07:45.427Z,2.50
2023-08-14T13:12:46.856Z,2.40
2023-08-14T13:17:50.021Z,2.63
2023-08-14T13:22:51.549Z,2.80
2023-08-14T13:27:54.600Z,2.38
2023-08-14T13:32:58.797Z,2.75
2023-08-14T13:38:01.173Z,2.70
2023-08-14T13:43:02.660Z,2.60
2023-08-14T13:48:05.818Z,2.65
2023-08-14T13:53:07.397Z,2.70
2023-08-14T13:58:08.796Z,2.90
2023-08-14T14:03:11.715Z,2.88
2023-08-14T14:08:13.147Z,3.00
2023-08-14T14:13:14.610Z,2.80
2023-08-14T14:18:17.406Z,2.90
2023-08-14T14:23:18.791Z,3.30
2023-08-14T14:28:20.164Z,2.63
2023-08-14T14:33:22.994Z,2.83
2023-08-14T14:38:24.549Z,2.70
2023-08-14T14:43:26.126Z,3.00
2023-08-14T14:48:28.877Z,3.03
2023-08-14T14:53:30.226Z,3.17
2023-08-14T14:58:31.883Z,2.90
2023-08-14T15:03:34.716Z,2.90
2023-08-14T15:08:36.333Z,3.10
2023-08-14T15:13:37.808Z,3.10
2023-08-14T15:18:40.562Z,2.78
2023-08-14T15:23:41.931Z,2.80
2023-08-14T15:28:43.303Z,2.55
2023-08-14T15:33:46.111Z,2.80
2023-08-14T15:38:47.487Z,2.65
2023-08-14T15:43:48.889Z,2.80
2023-08-14T15:48:51.627Z,2.67
2023-08-14T15:53:52.961Z,3.03
2023-08-14T15:58:54.359Z,3.00
2023-08-14T16:03:57.144Z,2.90
2023-08-14T16:08:58.566Z,3.00
2023-08-14T16:14:00.004Z,3.05
2023-08-14T16:19:02.711Z,2.80
2023-08-14T16:24:04.470Z,2.90
2023-08-14T16:29:05.891Z,3.00
2023-08-14T16:34:08.703Z,3.20
2023-08-14T16:39:12.658Z,3.22
2023-08-14T16:44:16.113Z,3.17
2023-08-14T16:49:18.897Z,3.13
2023-08-14T16:54:20.247Z,3.15
2023-08-14T16:59:21.602Z,3.30
2023-08-14T17:04:24.376Z,3.00
2023-08-14T17:09:25.922Z,3.00
2023-08-14T17:14:27.416Z,3.08
2023-08-14T17:19:30.333Z,2.97
2023-08-14T17:24:31.774Z,2.97
2023-08-14T17:29:33.621Z,3.13
2023-08-14T17:34:36.317Z,3.20
2023-08-14T17:39:37.781Z,3.42
2023-08-14T17:44:41.447Z,3.17
2023-08-14T17:49:44.247Z,3.08
2023-08-14T17:54:45.663Z,3.30
2023-08-14T17:59:48.153Z,2.92
2023-08-14T18:04:51.118Z,3.15
2023-08-14T18:09:55.021Z,3.78
2023-08-14T18:14:56.465Z,3.25
2023-08-14T18:19:59.148Z,2.78
2023-08-14T18:25:00.546Z,3.20
2023-08-14T18:30:02.494Z,3.53
2023-08-14T18:35:05.828Z,3.45
2023-08-14T18:40:07.963Z,4.05
2023-08-14T18:45:09.800Z,3.70
2023-08-14T18:50:13.528Z,3.75
2023-08-14T18:55:15.370Z,4.10
2023-08-14T19:00:16.826Z,4.00
2023-08-14T19:05:19.584Z,3.65
2023-08-14T19:10:21.040Z,3.88
2023-08-14T19:15:22.548Z,4.03
2023-08-14T19:20:25.310Z,3.97
2023-08-14T19:25:26.743Z,3.92
2023-08-14T19:30:28.110Z,4.93
2023-08-14T19:35:30.860Z,4.32
2023-08-14T19:40:35.408Z,4.82
2023-08-14T19:45:36.863Z,4.32
2023-08-14T19:50:44.019Z,4.80
2023-08-14T19:55:45.391Z,4.35
2023-08-14T20:00:46.815Z,4.22
2023-08-14T20:05:49.584Z,4.35
2023-08-14T20:10:51.127Z,4.32
2023-08-14T20:15:52.469Z,4.57
2023-08-14T20:20:55.230Z,4.68
2023-08-14T20:25:56.684Z,4.43
2023-08-14T20:30:58.243Z,4.50
2023-08-14T20:36:01.028Z,4.35
2023-08-14T20:41:02.449Z,4.90
2023-08-14T20:46:04.059Z,4.78
2023-08-14T20:51:06.799Z,4.95
2023-08-14T20:56:08.197Z,5.00
2023-08-14T21:01:09.636Z,5.05
2023-08-14T21:06:12.472Z,4.50
2023-08-14T21:11:13.920Z,5.07
2023-08-14T21:16:15.288Z,4.93
2023-08-14T21:21:18.133Z,4.55
2023-08-14T21:26:19.489Z,5.03
2023-08-14T21:31:20.949Z,4.63
2023-08-14T21:36:23.696Z,4.93
2023-08-14T21:41:25.029Z,4.88
2023-08-14T21:46:26.496Z,4.90
2023-08-14T21:51:29.260Z,4.80
2023-08-14T21:56:30.679Z,5.05
2023-08-14T22:01:32.079Z,4.43
2023-08-14T22:06:34.819Z,4.97
2023-08-14T22:11:36.177Z,4.95
2023-08-14T22:16:37.731Z,4.57
2023-08-14T22:21:40.617Z,4.47
2023-08-14T22:26:41.975Z,5.30
2023-08-14T22:31:43.466Z,4.60
2023-08-14T22:36:46.239Z,4.38
2023-08-14T22:41:47.742Z,4.63
2023-08-14T22:46:49.094Z,4.30
2023-08-14T22:51:51.849Z,4.53
2023-08-14T22:56:53.267Z,4.68
2023-08-14T23:01:54.690Z,4.53
2023-08-14T23:06:57.536Z,4.50
2023-08-14T23:11:58.982Z,4.72
2023-08-14T23:17:00.449Z,4.70
2023-08-14T23:22:03.285Z,4.90
2023-08-14T23:27:04.727Z,5.00
2023-08-14T23:32:06.446Z,4.65
2023-08-14T23:37:09.207Z,4.57
2023-08-14T23:42:10.847Z,4.60
2023-08-14T23:47:12.205Z,4.28
2023-08-14T23:52:15.383Z,4.88
2023-08-14T23:57:16.825Z,5.03
